Time;durP1;ratioP1;P1;durP2;ratioP2;P2;SDS_P1;SDS_P2;PMS_P1;PMS_P2;Temp;Humidity;BMP_temperature;BMP_pressure;BME280_temperature;BME280_humidity;BME280_pressure;Samples;Min_cycle;Max_cycle;Signal;HPM_P1;HPM_P2
2022/08/17 00:01:12;;;;;;;22.92;20.25;;;21.40;99.90;;;;;;4956748;28;38721;-58
2022/08/17 00:03:42;;;;;;;15.68;14.07;;;21.40;99.90;;;;;;4956431;28;38623;-58
2022/08/17 00:06:11;;;;;;;23.02;20.55;;;21.40;99.90;;;;;;4957054;28;37221;-58
2022/08/17 00:08:45;;;;;;;26.52;23.70;;;21.30;99.90;;;;;;4957473;28;36936;-58
2022/08/17 00:11:18;;;;;;;22.50;20.20;;;21.30;99.90;;;;;;4956764;28;37546;-58
2022/08/17 00:13:47;;;;;;;26.00;23.33;;;21.30;99.90;;;;;;4957529;28;36807;-58
2022/08/17 00:16:18;;;;;;;25.38;22.40;;;21.30;99.90;;;;;;4957864;28;37862;-58
2022/08/17 00:18:46;;;;;;;24.48;21.63;;;21.20;99.90;;;;;;4959597;28;38138;-58
2022/08/17 00:21:15;;;;;;;27.30;22.67;;;21.20;99.90;;;;;;4958037;28;37835;-58
2022/08/17 00:23:45;;;;;;;29.98;24.10;;;21.20;99.90;;;;;;4959531;28;37837;-58
2022/08/17 00:26:13;;;;;;;26.02;23.25;;;21.20;99.90;;;;;;4959035;28;39049;-58
2022/08/17 00:28:41;;;;;;;25.95;23.15;;;21.20;99.90;;;;;;4959765;28;40653;-58
2022/08/17 00:31:10;;;;;;;27.73;24.75;;;21.20;99.90;;;;;;4958436;28;37717;-58
2022/08/17 00:33:39;;;;;;;30.95;26.92;;;21.20;99.90;;;;;;4958954;28;36791;-58
2022/08/17 00:36:07;;;;;;;30.67;27.27;;;21.20;99.90;;;;;;4959131;28;36756;-58
2022/08/17 00:38:35;;;;;;;30.05;26.77;;;21.20;99.90;;;;;;4959514;28;40606;-58
2022/08/17 00:41:07;;;;;;;13.82;12.40;;;21.20;99.90;;;;;;4956701;28;38303;-58
2022/08/17 00:43:36;;;;;;;11.88;10.07;;;21.20;99.90;;;;;;4958810;28;37464;-58
2022/08/17 00:46:07;;;;;;;12.45;11.13;;;21.10;99.90;;;;;;4958243;28;37205;-58
2022/08/17 00:48:35;;;;;;;17.65;15.77;;;21.10;99.90;;;;;;4959261;28;39960;-58
2022/08/17 00:51:12;;;;;;;22.95;19.15;;;21.00;99.90;;;;;;4958856;28;38129;-58
2022/08/17 00:53:42;;;;;;;24.90;22.13;;;21.00;99.90;;;;;;4959063;28;37268;-58
2022/08/17 00:56:17;;;;;;;28.35;24.70;;;21.00;99.90;;;;;;4959254;28;36419;-58
2022/08/17 00:58:45;;;;;;;27.50;23.98;;;21.00;99.90;;;;;;4958969;28;36845;-58
2022/08/17 01:01:13;;;;;;;27.50;24.60;;;20.90;99.90;;;;;;4959055;28;37926;-58
2022/08/17 01:03:42;;;;;;;25.77;23.00;;;20.90;99.90;;;;;;4958212;28;36767;-58
2022/08/17 01:06:11;;;;;;;27.83;22.52;;;20.90;99.90;;;;;;4958363;28;36463;-58
2022/08/17 01:08:40;;;;;;;24.67;22.13;;;20.90;99.90;;;;;;4958514;28;37863;-58
2022/08/17 01:11:08;;;;;;;25.83;22.60;;;20.80;99.90;;;;;;4959382;28;38580;-58
2022/08/17 01:13:40;;;;;;;20.52;18.35;;;20.80;99.90;;;;;;4958087;28;33812;-58
2022/08/17 01:16:15;;;;;;;25.27;21.33;;;20.80;99.90;;;;;;4957147;28;38718;-58
2022/08/17 01:18:43;;;;;;;24.08;21.48;;;20.80;99.90;;;;;;4958758;28;38652;-58
2022/08/17 01:21:18;;;;;;;28.58;21.80;;;20.80;99.90;;;;;;4956945;28;37975;-58
2022/08/17 01:23:46;;;;;;;23.02;19.70;;;20.80;99.90;;;;;;4957493;28;37445;-58
2022/08/17 01:26:14;;;;;;;24.45;21.77;;;20.80;99.90;;;;;;4961252;28;37613;-58
2022/08/17 01:28:41;;;;;;;23.60;21.02;;;20.80;99.90;;;;;;4960709;28;37654;-58
2022/08/17 01:31:09;;;;;;;18.15;16.25;;;20.80;99.90;;;;;;4961770;28;38071;-58
2022/08/17 01:33:37;;;;;;;14.05;12.30;;;20.70;99.90;;;;;;4961920;28;36843;-58
2022/08/17 01:36:07;;;;;;;13.15;11.30;;;20.70;99.90;;;;;;4960021;28;37545;-58
2022/08/17 01:38:34;;;;;;;13.25;11.32;;;20.60;99.90;;;;;;4960965;28;39412;-58
2022/08/17 01:41:08;;;;;;;15.15;12.82;;;20.50;99.90;;;;;;4961263;28;39018;-58
2022/08/17 01:43:41;;;;;;;13.82;12.32;;;20.40;99.90;;;;;;4961240;28;36532;-58
2022/08/17 01:46:08;;;;;;;;;;;20.40;99.90;;;;;;4961154;28;38432;-58
2022/08/17 01:48:37;;;;;;;18.33;16.27;;;20.30;99.90;;;;;;4962037;28;37147;-58
2022/08/17 01:51:07;;;;;;;21.92;18.35;;;20.30;99.90;;;;;;4959358;28;37938;-58
2022/08/17 01:53:39;;;;;;;36.72;31.23;;;20.30;99.90;;;;;;4961646;28;36534;-58
2022/08/17 01:56:12;;;;;;;27.25;21.95;;;20.30;99.90;;;;;;4961415;28;36326;-58
2022/08/17 01:58:41;;;;;;;23.25;17.67;;;20.30;99.90;;;;;;4961636;28;38028;-58
2022/08/17 02:01:11;;;;;;;20.75;18.15;;;20.20;99.90;;;;;;4960305;28;38921;-58
2022/08/17 02:03:39;;;;;;;25.40;19.40;;;20.20;99.90;;;;;;4961460;28;35569;-58
2022/08/17 02:06:07;;;;;;;27.05;22.23;;;20.20;99.90;;;;;;4961493;28;41493;-58
2022/08/17 02:08:35;;;;;;;17.13;15.27;;;20.20;99.90;;;;;;4961163;28;39892;-58
2022/08/17 02:11:04;;;;;;;17.20;15.10;;;20.20;99.90;;;;;;4960699;28;38536;-58
2022/08/17 02:13:33;;;;;;;16.08;13.77;;;20.10;99.90;;;;;;4960593;28;36764;-58
2022/08/17 02:16:01;;;;;;;16.05;14.32;;;20.10;99.90;;;;;;4960279;28;37561;-58
2022/08/17 02:18:29;;;;;;;16.65;14.40;;;20.10;99.90;;;;;;4961603;28;39165;-58
2022/08/17 02:20:57;;;;;;;20.08;16.92;;;20.10;99.90;;;;;;4962045;28;40131;-58
2022/08/17 02:23:27;;;;;;;17.08;14.13;;;20.10;99.90;;;;;;4959286;28;37267;-58
2022/08/17 02:25:57;;;;;;;11.68;10.48;;;20.00;99.90;;;;;;4961848;28;36348;-58
2022/08/17 02:28:24;;;;;;;12.30;10.95;;;20.00;99.90;;;;;;4960750;28;40177;-58
2022/08/17 02:30:53;;;;;;;12.60;11.07;;;20.00;99.90;;;;;;4960800;28;37809;-58
2022/08/17 02:33:21;;;;;;;12.05;10.65;;;20.00;99.90;;;;;;4960710;28;36672;-58
2022/08/17 02:35:48;;;;;;;10.80;9.60;;;20.00;99.90;;;;;;4960121;28;36100;-58
2022/08/17 02:38:16;;;;;;;6.70;5.55;;;20.00;99.90;;;;;;4960606;28;38863;-58
2022/08/17 02:40:43;;;;;;;23.17;8.50;;;19.90;99.90;;;;;;4960464;28;37573;-58
2022/08/17 02:43:11;;;;;;;9.25;6.93;;;19.90;99.90;;;;;;4960166;28;37220;-58
2022/08/17 02:45:38;;;;;;;7.55;6.15;;;19.90;99.90;;;;;;4957329;28;38290;-58
2022/08/17 02:48:07;;;;;;;12.32;7.07;;;19.90;99.90;;;;;;4959852;28;38264;-58
2022/08/17 02:50:35;;;;;;;9.20;7.78;;;19.70;99.90;;;;;;4961271;28;38146;-58
2022/08/17 02:53:02;;;;;;;14.88;7.93;;;19.70;99.90;;;;;;4960219;28;36183;-58
2022/08/17 02:55:33;;;;;;;9.30;7.72;;;19.70;99.90;;;;;;4960624;28;38320;-58
2022/08/17 02:58:00;;;;;;;8.23;7.07;;;19.70;99.90;;;;;;4960678;28;39436;-58
2022/08/17 03:00:32;;;;;;;9.35;8.15;;;19.70;99.90;;;;;;4959853;28;36458;-58
2022/08/17 03:03:01;;;;;;;11.32;9.55;;;19.70;99.90;;;;;;4960143;28;35528;-58
2022/08/17 03:05:31;;;;;;;10.82;8.05;;;19.60;99.90;;;;;;4960335;28;36308;-58
2022/08/17 03:07:59;;;;;;;14.05;10.82;;;19.60;99.90;;;;;;4961001;28;40369;-58
2022/08/17 03:10:26;;;;;;;9.82;8.82;;;19.60;99.90;;;;;;4960153;28;38527;-58
2022/08/17 03:12:54;;;;;;;8.43;7.53;;;19.70;99.90;;;;;;4961048;28;37603;-58
2022/08/17 03:15:24;;;;;;;16.02;13.32;;;19.70;99.90;;;;;;4957792;28;36379;-58
2022/08/17 03:17:53;;;;;;;24.98;17.05;;;19.70;99.90;;;;;;4959593;28;38477;-58
2022/08/17 03:20:21;;;;;;;14.50;10.82;;;19.60;99.90;;;;;;4960547;28;38164;-58
2022/08/17 03:22:53;;;;;;;12.52;10.18;;;19.70;99.90;;;;;;4960343;28;36697;-57
2022/08/17 03:25:22;;;;;;;11.85;10.43;;;19.70;99.90;;;;;;4959566;28;37678;-58
2022/08/17 03:27:50;;;;;;;11.32;10.15;;;19.70;99.90;;;;;;4959925;28;38412;-58
2022/08/17 03:30:18;;;;;;;12.02;10.73;;;19.70;99.90;;;;;;4959987;28;37856;-58
2022/08/17 03:32:48;;;;;;;11.30;10.00;;;19.70;99.90;;;;;;4960385;28;39229;-58
2022/08/17 03:35:17;;;;;;;11.05;9.93;;;19.70;99.90;;;;;;4959725;28;39067;-58
2022/08/17 03:37:45;;;;;;;11.88;10.68;;;19.70;99.90;;;;;;4959655;28;38094;-58
2022/08/17 03:40:16;;;;;;;14.73;12.38;;;19.70;99.90;;;;;;4959620;28;36466;-58
2022/08/17 03:42:43;;;;;;;15.65;12.30;;;19.70;99.90;;;;;;4959619;28;37250;-58
2022/08/17 03:45:13;;;;;;;14.30;12.75;;;19.60;99.90;;;;;;4960265;28;38657;-58
2022/08/17 03:59:04;;;;;;;17.75;15.80;;;19.60;99.90;;;;;;4911131;28;37167;-58
2022/08/17 04:01:31;;;;;;;17.85;16.00;;;19.60;99.90;;;;;;4912248;28;36443;-58
2022/08/17 04:03:58;;;;;;;16.13;14.45;;;19.60;99.90;;;;;;4932109;28;36736;-58
2022/08/17 04:06:26;;;;;;;17.08;14.57;;;19.60;99.90;;;;;;4959537;28;37198;-58
2022/08/17 04:08:53;;;;;;;15.27;13.68;;;19.60;99.90;;;;;;4958127;28;42885;-58
2022/08/17 04:11:21;;;;;;;19.15;16.80;;;19.60;99.90;;;;;;4959722;28;39210;-58
2022/08/17 04:13:49;;;;;;;21.55;18.23;;;19.60;99.90;;;;;;4958057;28;38313;-58
2022/08/17 04:16:16;;;;;;;26.98;18.73;;;19.60;99.90;;;;;;4958208;28;37581;-58
2022/08/17 04:18:43;;;;;;;43.67;16.90;;;19.60;99.90;;;;;;4958581;28;37994;-58
2022/08/17 04:21:11;;;;;;;40.13;16.60;;;19.60;99.90;;;;;;4959351;28;37528;-58
2022/08/17 04:23:38;;;;;;;18.75;16.77;;;19.60;99.90;;;;;;4959472;28;36129;-58
2022/08/17 04:26:06;;;;;;;27.13;16.20;;;19.60;99.90;;;;;;4959786;28;39999;-58
2022/08/17 04:28:34;;;;;;;19.80;17.65;;;19.60;99.90;;;;;;4958389;28;36735;-58
2022/08/17 04:31:01;;;;;;;20.92;17.70;;;19.60;99.90;;;;;;4960237;28;38100;-57
2022/08/17 04:33:30;;;;;;;17.45;15.75;;;19.60;99.90;;;;;;4958480;28;36845;-58
2022/08/17 04:36:00;;;;;;;19.25;17.42;;;19.60;99.90;;;;;;4959420;28;38433;-58
2022/08/17 04:38:30;;;;;;;19.45;17.35;;;19.70;99.90;;;;;;4957551;28;38743;-58
2022/08/17 04:43:47;;;;;;;17.35;15.65;;;19.70;99.90;;;;;;4960802;28;20158;-58
2022/08/17 04:46:18;;;;;;;14.93;13.43;;;19.60;99.90;;;;;;4957724;28;38151;-58
2022/08/17 04:48:47;;;;;;;17.08;13.80;;;19.70;99.90;;;;;;4957780;28;38692;-58
2022/08/17 04:51:16;;;;;;;14.68;13.18;;;19.70;99.90;;;;;;4958927;28;39087;-58
2022/08/17 04:53:46;;;;;;;16.50;14.45;;;19.70;99.90;;;;;;4958970;28;36973;-58
2022/08/17 04:56:17;;;;;;;17.25;14.38;;;19.70;99.90;;;;;;4960209;28;37890;-58
2022/08/17 04:58:48;;;;;;;17.67;15.10;;;19.80;99.90;;;;;;4958958;28;40113;-58
2022/08/17 05:01:16;;;;;;;20.25;17.75;;;19.80;99.90;;;;;;4961465;28;37397;-58
2022/08/17 05:03:44;;;;;;;18.70;16.27;;;19.80;99.90;;;;;;4962623;28;37613;-58
2022/08/17 05:06:11;;;;;;;26.98;16.55;;;19.90;99.90;;;;;;4962250;28;38808;-58
2022/08/17 05:08:39;;;;;;;17.63;15.82;;;19.90;99.90;;;;;;4961345;28;36736;-58
2022/08/17 05:11:07;;;;;;;17.60;15.48;;;19.90;99.90;;;;;;4961641;28;39343;-58
2022/08/17 05:13:34;;;;;;;16.05;14.45;;;19.90;99.90;;;;;;4961854;28;37080;-58
2022/08/17 05:16:04;;;;;;;14.15;12.65;;;19.90;99.90;;;;;;4961293;28;37233;-58
2022/08/17 05:18:32;;;;;;;14.48;12.20;;;19.90;99.90;;;;;;4961871;28;37803;-58
2022/08/17 05:21:00;;;;;;;14.98;13.32;;;19.90;99.90;;;;;;4961389;28;38301;-58
2022/08/17 05:23:28;;;;;;;18.42;11.25;;;19.90;99.90;;;;;;4961599;28;36554;-58
2022/08/17 05:25:57;;;;;;;15.00;12.70;;;19.90;99.90;;;;;;4961979;28;37655;-58
2022/08/17 05:28:27;;;;;;;18.95;13.00;;;19.90;99.90;;;;;;4960672;28;39955;-58
2022/08/17 05:30:56;;;;;;;15.25;13.30;;;19.90;99.90;;;;;;4960796;28;38489;-58
2022/08/17 05:33:28;;;;;;;17.02;13.40;;;19.90;99.90;;;;;;4962129;28;35563;-58
2022/08/17 05:35:58;;;;;;;17.05;15.15;;;19.90;99.90;;;;;;4962335;28;36401;-58
2022/08/17 05:38:27;;;;;;;18.48;15.10;;;19.90;99.90;;;;;;4960536;28;38297;-58
2022/08/17 05:40:54;;;;;;;17.55;15.63;;;19.80;99.90;;;;;;4961681;28;37743;-58
2022/08/17 05:43:23;;;;;;;18.23;16.13;;;19.90;99.90;;;;;;4961198;28;37392;-58
2022/08/17 05:45:59;;;;;;;17.75;15.95;;;19.90;99.90;;;;;;4960968;28;38786;-58
2022/08/17 05:48:28;;;;;;;18.00;16.15;;;19.90;99.90;;;;;;4960320;28;38362;-58
2022/08/17 05:51:06;;;;;;;19.48;17.48;;;19.90;99.90;;;;;;4962051;28;36791;-58
2022/08/17 05:53:41;;;;;;;19.42;17.35;;;19.90;99.90;;;;;;4961017;28;35407;-58
2022/08/17 05:56:13;;;;;;;19.73;17.70;;;20.00;99.90;;;;;;4962065;28;38539;-58
2022/08/17 05:58:51;;;;;;;19.17;17.25;;;20.00;99.90;;;;;;4960991;28;38044;-58
2022/08/17 06:01:32;;;;;;;19.90;17.90;;;20.00;99.90;;;;;;4960425;28;39239;-58
2022/08/17 06:04:11;;;;;;;18.90;17.00;;;20.00;99.90;;;;;;4962573;28;36958;-58
2022/08/17 06:06:43;;;;;;;20.33;17.80;;;20.00;99.90;;;;;;4960774;28;36148;-58
2022/08/17 06:09:25;;;;;;;22.33;19.92;;;20.10;99.90;;;;;;4960775;28;39270;-58
2022/08/17 06:11:59;;;;;;;21.52;17.80;;;20.10;99.90;;;;;;4961401;28;37497;-57
2022/08/17 06:14:44;;;;;;;22.58;20.27;;;20.10;99.90;;;;;;4961367;28;36228;-58
2022/08/17 06:17:15;;;;;;;20.98;18.77;;;20.20;99.90;;;;;;4959910;28;36866;-58
2022/08/17 06:19:48;;;;;;;22.95;19.45;;;20.20;99.90;;;;;;4960069;28;36883;-58
2022/08/17 06:22:18;;;;;;;;;;;20.20;99.90;;;;;;4961746;28;37660;-58
2022/08/17 06:24:50;;;;;;;19.88;17.83;;;20.20;99.90;;;;;;4960904;28;36752;-58
2022/08/17 06:27:25;;;;;;;20.73;18.63;;;20.20;99.90;;;;;;4960864;28;37513;-57
2022/08/17 06:29:57;;;;;;;21.05;18.60;;;20.20;99.90;;;;;;4958207;28;39471;-58
2022/08/17 06:32:25;;;;;;;21.13;19.05;;;20.10;99.90;;;;;;4960337;28;37688;-58
2022/08/17 06:34:54;;;;;;;21.90;19.60;;;20.10;99.90;;;;;;4958889;28;38701;-57
2022/08/17 06:37:48;;;;;;;23.27;20.88;;;20.10;99.90;;;;;;4959142;28;38158;-58
2022/08/17 06:40:32;;;;;;;21.58;19.27;;;20.20;99.90;;;;;;4959062;28;40553;-58
2022/08/17 06:43:13;;;;;;;26.80;22.90;;;20.20;99.90;;;;;;4960882;28;38170;-58
2022/08/17 06:45:47;;;;;;;24.98;22.38;;;20.30;99.90;;;;;;4960979;28;36742;-58
2022/08/17 06:48:24;;;;;;;25.52;22.83;;;20.30;99.90;;;;;;4960303;28;36350;-57
2022/08/17 06:50:59;;;;;;;25.15;21.13;;;20.30;99.90;;;;;;4960630;28;37822;-58
2022/08/17 06:53:32;;;;;;;25.98;23.17;;;20.40;99.90;;;;;;4959410;28;36443;-58
2022/08/17 06:56:06;;;;;;;26.00;22.93;;;20.30;99.90;;;;;;4961422;28;36631;-58
2022/08/17 06:58:35;;;;;;;28.13;23.30;;;20.30;99.90;;;;;;4961604;28;36325;-58
2022/08/17 07:01:08;;;;;;;28.67;23.60;;;20.30;99.90;;;;;;4960171;28;38622;-58
2022/08/17 07:03:38;;;;;;;27.05;23.73;;;20.30;99.90;;;;;;4960538;28;37882;-58
2022/08/17 07:06:14;;;;;;;29.30;26.27;;;20.30;99.90;;;;;;4960427;28;37387;-58
2022/08/17 07:08:54;;;;;;;32.20;26.77;;;20.30;99.90;;;;;;4961184;28;38467;-58
2022/08/17 07:11:27;;;;;;;33.08;28.00;;;20.40;99.90;;;;;;4960760;28;38518;-58
2022/08/17 07:14:04;;;;;;;32.53;28.88;;;20.40;99.90;;;;;;4960558;28;39023;-57
2022/08/17 07:16:38;;;;;;;30.63;27.33;;;20.40;99.90;;;;;;4959496;28;35188;-57
2022/08/17 07:19:06;;;;;;;32.80;27.85;;;20.40;99.90;;;;;;4960988;28;39791;-58
2022/08/17 07:21:53;;;;;;;32.25;28.27;;;20.30;99.90;;;;;;4960664;28;38020;-57
2022/08/17 07:24:34;;;;;;;30.83;27.33;;;20.30;99.90;;;;;;4960964;28;40384;-57
2022/08/17 07:27:06;;;;;;;37.72;30.15;;;20.30;99.90;;;;;;4960976;28;37206;-57
2022/08/17 07:29:39;;;;;;;33.40;29.67;;;20.40;99.90;;;;;;4960264;28;37419;-58
2022/08/17 07:32:09;;;;;;;40.92;29.25;;;20.50;99.90;;;;;;4960451;28;38514;-58
2022/08/17 07:35:01;;;;;;;37.28;30.67;;;20.50;99.90;;;;;;4960183;28;36763;-58
2022/08/17 07:37:33;;;;;;;36.22;30.05;;;20.50;99.90;;;;;;4960790;28;36254;-58
2022/08/17 07:40:26;;;;;;;38.95;33.42;;;20.60;99.90;;;;;;4959191;28;37787;-58
2022/08/17 07:43:02;;;;;;;39.00;32.40;;;20.60;99.90;;;;;;4960630;28;37650;-57
2022/08/17 07:48:27;;;;;;;42.00;34.38;;;20.60;99.90;;;;;;4892868;28;36961;-58
2022/08/17 07:50:59;;;;;;;42.80;34.88;;;20.70;99.90;;;;;;4944713;28;40551;-58
2022/08/17 07:53:30;;;;;;;41.97;36.55;;;20.70;99.90;;;;;;4960373;28;38079;-58
2022/08/17 07:55:57;;;;;;;41.67;35.00;;;20.70;99.90;;;;;;4960848;28;38715;-57
2022/08/17 07:58:25;;;;;;;45.30;36.05;;;20.80;99.90;;;;;;4959619;28;35452;-57
2022/08/17 08:01:08;;;;;;;44.13;36.33;;;20.80;99.90;;;;;;4960918;28;37115;-58
2022/08/17 08:03:41;;;;;;;41.10;34.33;;;21.00;99.90;;;;;;4960382;28;38055;-58
2022/08/17 08:06:20;;;;;;;42.45;35.50;;;21.00;99.90;;;;;;4960113;28;38672;-58
2022/08/17 08:08:53;;;;;;;44.22;37.00;;;21.10;99.90;;;;;;4958768;28;39406;-57
2022/08/17 08:11:29;;;;;;;;;;;21.20;99.90;;;;;;4960458;28;37585;-58
2022/08/17 08:14:16;;;;;;;42.88;33.85;;;21.20;99.90;;;;;;4959863;28;38060;-58
2022/08/17 08:16:57;;;;;;;42.13;35.92;;;21.20;99.90;;;;;;4959955;28;37780;-57
2022/08/17 08:19:25;;;;;;;39.22;35.03;;;21.20;99.90;;;;;;4959456;28;35661;-57
2022/08/17 08:22:02;;;;;;;40.90;36.58;;;21.10;99.90;;;;;;4960098;28;39886;-58
2022/08/17 08:24:49;;;;;;;43.83;36.08;;;21.10;99.90;;;;;;4959944;28;39263;-58
2022/08/17 08:27:26;;;;;;;40.95;35.60;;;21.10;99.90;;;;;;4960101;28;38032;-58
2022/08/17 08:30:03;;;;;;;43.22;36.75;;;21.10;99.90;;;;;;4958154;28;36792;-58
2022/08/17 08:32:44;;;;;;;45.58;39.20;;;21.10;99.90;;;;;;4960729;28;38039;-58
2022/08/17 08:35:21;;;;;;;45.40;39.80;;;21.10;99.90;;;;;;4958795;28;39110;-58
2022/08/17 08:38:02;;;;;;;51.10;42.10;;;21.10;99.90;;;;;;4959846;28;37723;-58
2022/08/17 08:40:51;;;;;;;46.15;40.08;;;21.20;99.90;;;;;;4959394;28;37198;-58
2022/08/17 08:43:31;;;;;;;44.53;38.00;;;21.20;99.90;;;;;;4959633;28;39516;-57
2022/08/17 08:46:06;;;;;;;42.05;35.85;;;21.20;99.90;;;;;;4958831;28;36950;-58
2022/08/17 08:48:56;;;;;;;40.53;36.13;;;21.20;99.90;;;;;;4956930;28;38375;-57
2022/08/17 08:51:33;;;;;;;38.13;33.80;;;21.30;99.90;;;;;;4955491;28;39282;-58
2022/08/17 08:54:08;;;;;;;35.60;31.30;;;21.40;99.90;;;;;;4959587;28;36309;-58
2022/08/17 08:56:43;;;;;;;34.15;30.42;;;21.40;99.90;;;;;;4960184;28;39259;-58
2022/08/17 08:59:21;;;;;;;33.45;29.83;;;21.50;99.90;;;;;;4958940;28;37843;-58
2022/08/17 09:01:58;;;;;;;34.50;30.67;;;21.50;99.90;;;;;;4960364;28;36913;-58
2022/08/17 09:04:48;;;;;;;32.90;29.50;;;21.50;99.90;;;;;;4959254;28;38002;-58
2022/08/17 09:07:29;;;;;;;32.22;28.20;;;21.50;99.90;;;;;;4955543;28;38742;-57
2022/08/17 09:10:03;;;;;;;32.53;28.17;;;21.50;99.90;;;;;;4957177;28;37643;-57
2022/08/17 09:12:41;;;;;;;36.60;30.02;;;21.50;99.90;;;;;;4958669;28;38116;-58
2022/08/17 09:15:16;;;;;;;35.28;29.85;;;21.60;99.90;;;;;;4956491;28;38193;-58
2022/08/17 09:17:51;;;;;;;32.88;29.38;;;21.60;99.90;;;;;;4957040;28;38877;-58
2022/08/17 09:20:24;;;;;;;41.72;29.50;;;21.60;99.90;;;;;;4956426;28;37727;-58
2022/08/17 09:22:59;;;;;;;36.05;31.05;;;21.60;99.90;;;;;;4955332;28;35461;-58
2022/08/17 09:25:31;;;;;;;34.78;30.92;;;21.60;99.90;;;;;;4957173;28;38035;-58
2022/08/17 09:28:03;;;;;;;36.25;31.00;;;21.60;99.90;;;;;;4957151;28;38252;-58
2022/08/17 09:30:50;;;;;;;34.58;30.13;;;21.60;99.90;;;;;;4957331;28;38417;-58
2022/08/17 09:33:24;;;;;;;33.38;29.85;;;21.70;99.90;;;;;;4958784;28;37786;-58
2022/08/17 09:35:56;;;;;;;32.35;28.83;;;21.80;99.90;;;;;;4958987;28;38589;-58
2022/08/17 09:38:36;;;;;;;33.45;29.90;;;21.90;99.90;;;;;;4958120;28;41648;-58
2022/08/17 09:41:13;;;;;;;31.33;27.92;;;21.90;99.90;;;;;;4956431;28;39398;-58
2022/08/17 09:43:49;;;;;;;32.92;28.95;;;21.90;99.90;;;;;;4958099;28;37340;-58
2022/08/17 09:46:20;;;;;;;33.05;29.08;;;22.10;99.90;;;;;;4960118;28;37490;-58
2022/08/17 09:48:54;;;;;;;30.80;27.23;;;22.30;99.90;;;;;;4961636;28;38202;-58
2022/08/17 09:51:30;;;;;;;29.98;26.88;;;22.30;99.90;;;;;;4961659;28;38211;-58
2022/08/17 09:53:58;;;;;;;29.40;26.35;;;22.30;99.90;;;;;;4961998;28;35593;-58
2022/08/17 09:56:39;;;;;;;30.17;26.88;;;22.30;99.90;;;;;;4962472;28;38038;-58
2022/08/17 09:59:33;;;;;;;28.75;25.63;;;22.20;99.90;;;;;;4960982;28;39649;-58
2022/08/17 10:02:05;;;;;;;;;;;22.30;99.90;;;;;;4962105;28;39238;-58
2022/08/17 10:04:40;;;;;;;28.67;25.75;;;22.30;99.90;;;;;;4961677;28;37191;-58
2022/08/17 10:07:15;;;;;;;28.92;25.88;;;22.30;99.90;;;;;;4960524;28;38047;-58
2022/08/17 10:09:51;;;;;;;28.30;25.30;;;22.30;99.90;;;;;;4960541;28;38843;-58
2022/08/17 10:12:30;;;;;;;30.38;27.20;;;22.30;99.90;;;;;;4961587;28;39394;-58
2022/08/17 10:15:21;;;;;;;35.85;28.60;;;22.30;99.90;;;;;;4961163;28;38473;-58
2022/08/17 10:18:06;;;;;;;32.80;28.45;;;22.30;99.90;;;;;;4960310;28;36168;-58
2022/08/17 10:20:41;;;;;;;35.30;31.65;;;22.30;99.90;;;;;;4959809;28;38320;-58
2022/08/17 10:26:12;;;;;;;33.67;30.13;;;22.20;99.90;;;;;;4960795;28;39208;-58
2022/08/17 10:28:45;;;;;;;31.38;28.10;;;22.30;99.90;;;;;;4959378;28;36412;-58
2022/08/17 10:31:23;;;;;;;32.58;29.10;;;22.30;99.90;;;;;;4960985;28;39398;-58
2022/08/17 10:34:06;;;;;;;33.65;29.35;;;22.30;99.90;;;;;;4960525;28;37799;-58
2022/08/17 10:36:44;;;;;;;32.10;28.42;;;22.30;99.90;;;;;;4959515;28;36913;-58
2022/08/17 10:39:30;;;;;;;29.50;26.50;;;22.30;99.90;;;;;;4958918;28;37631;-58
2022/08/17 10:42:03;;;;;;;28.70;25.65;;;22.30;99.90;;;;;;4961257;28;37485;-59
2022/08/17 10:44:45;;;;;;;26.80;23.77;;;22.30;99.90;;;;;;4960730;28;38455;-58
2022/08/17 10:47:16;;;;;;;29.60;26.45;;;22.30;99.90;;;;;;4960341;28;35041;-58
2022/08/17 10:49:48;;;;;;;27.23;24.33;;;22.30;99.90;;;;;;4959605;28;37108;-58
2022/08/17 10:52:48;;;;;;;26.02;23.25;;;22.30;99.90;;;;;;4959161;28;38811;-58
2022/08/17 10:55:19;;;;;;;28.58;25.35;;;22.40;99.90;;;;;;4959335;28;38427;-58
2022/08/17 10:57:49;;;;;;;28.50;24.60;;;22.40;99.90;;;;;;4958462;28;35546;-58
2022/08/17 11:00:56;;;;;;;25.77;22.88;;;22.50;99.90;;;;;;4960616;28;37615;-58
2022/08/17 11:03:26;;;;;;;23.80;21.27;;;22.60;99.90;;;;;;4948303;28;38026;-58
2022/08/17 11:06:04;;;;;;;24.40;21.92;;;22.60;99.90;;;;;;4960066;28;37960;-59
2022/08/17 11:09:18;;;;;;;24.10;21.33;;;22.70;99.90;;;;;;4958753;28;39296;-58
2022/08/17 11:12:18;;;;;;;23.15;20.70;;;22.70;99.90;;;;;;4924360;28;37431;-58
2022/08/17 11:15:12;;;;;;;22.75;20.00;;;22.70;99.90;;;;;;4958465;28;38254;-58
2022/08/17 11:17:48;;;;;;;;;;;22.80;99.90;;;;;;4958677;28;38911;-58
2022/08/17 11:20:54;;;;;;;27.60;21.65;;;22.80;99.90;;;;;;4960571;28;37961;-58
2022/08/17 11:23:33;;;;;;;22.85;19.80;;;22.90;99.90;;;;;;4937718;28;38340;-58
2022/08/17 11:26:07;;;;;;;24.65;20.60;;;22.90;99.90;;;;;;4960435;28;37631;-58
2022/08/17 11:28:45;;;;;;;20.90;18.63;;;22.90;99.90;;;;;;4957976;28;38138;-58
2022/08/17 11:31:28;;;;;;;21.58;18.48;;;22.90;99.90;;;;;;4959028;28;36471;-58
2022/08/17 11:34:00;;;;;;;22.92;17.73;;;22.90;99.90;;;;;;4960669;28;38742;-58
2022/08/17 11:36:46;;;;;;;21.15;17.92;;;22.90;99.90;;;;;;4959591;28;36997;-58
2022/08/17 11:39:30;;;;;;;23.45;19.55;;;23.00;99.90;;;;;;4959469;28;38032;-58
2022/08/17 11:42:04;;;;;;;23.00;19.25;;;23.00;99.90;;;;;;4960152;28;39080;-58
2022/08/17 11:44:43;;;;;;;21.63;18.92;;;23.00;99.90;;;;;;4959171;28;41609;-58
2022/08/17 11:54:00;;;;;;;23.00;18.73;;;23.10;99.90;;;;;;4957344;28;37948;-58
2022/08/17 11:56:37;;;;;;;22.38;19.80;;;23.20;99.90;;;;;;4959017;28;36962;-57
2022/08/17 11:59:44;;;;;;;23.52;19.38;;;23.20;99.90;;;;;;4955193;28;38396;-58
2022/08/17 12:02:44;;;;;;;22.02;19.35;;;23.20;99.90;;;;;;4959543;28;37835;-58
2022/08/17 12:05:32;;;;;;;22.17;18.30;;;23.10;99.90;;;;;;4958648;28;38208;-57
2022/08/17 12:08:21;;;;;;;20.73;17.60;;;23.00;99.90;;;;;;4957482;28;39721;-58
2022/08/17 12:10:58;;;;;;;20.63;17.15;;;22.90;99.90;;;;;;4952564;28;36913;-58
2022/08/17 12:13:27;;;;;;;17.42;14.02;;;22.90;99.90;;;;;;4959592;28;38214;-58
2022/08/17 12:15:55;;;;;;;17.05;13.35;;;23.00;99.90;;;;;;4954499;28;36843;-58
2022/08/17 12:18:26;;;;;;;16.90;12.57;;;23.00;99.90;;;;;;4956571;28;37263;-58
2022/08/17 12:21:21;;;;;;;14.90;12.32;;;23.00;99.90;;;;;;4957643;28;37654;-58
2022/08/17 12:23:56;;;;;;;17.45;12.55;;;23.00;99.90;;;;;;4957744;28;37683;-57
2022/08/17 12:26:29;;;;;;;18.90;12.55;;;22.90;99.90;;;;;;4958168;28;37851;-58
2022/08/17 12:29:00;;;;;;;16.83;12.77;;;23.00;99.90;;;;;;4958358;28;37363;-58
2022/08/17 12:31:31;;;;;;;15.88;12.63;;;23.00;99.90;;;;;;4957597;28;37749;-58
2022/08/17 12:33:59;;;;;;;15.10;13.50;;;23.00;99.90;;;;;;4955621;28;37358;-58
2022/08/17 12:36:28;;;;;;;18.02;14.35;;;22.90;99.90;;;;;;4957970;28;36525;-58
2022/08/17 12:39:01;;;;;;;20.98;15.25;;;23.00;99.90;;;;;;4958352;28;37689;-57
2022/08/17 12:41:39;;;;;;;18.27;13.80;;;23.10;99.90;;;;;;4957219;28;36979;-57
2022/08/17 12:44:13;;;;;;;16.77;13.52;;;23.10;99.90;;;;;;4956368;28;38691;-58
2022/08/17 12:46:53;;;;;;;14.40;11.88;;;23.00;99.90;;;;;;4956836;28;37507;-58
2022/08/17 12:49:25;;;;;;;11.70;9.57;;;23.00;99.90;;;;;;4957749;28;36385;-57
2022/08/17 12:52:06;;;;;;;14.77;10.48;;;23.00;99.90;;;;;;4958751;28;35935;-58
2022/08/17 12:54:52;;;;;;;18.27;12.23;;;23.00;99.90;;;;;;4958988;28;38022;-58
2022/08/17 12:57:25;;;;;;;13.65;11.60;;;23.00;99.90;;;;;;4957957;28;36524;-58
2022/08/17 12:59:57;;;;;;;15.32;11.65;;;22.90;99.90;;;;;;4957050;28;39802;-57
2022/08/17 13:02:38;;;;;;;16.88;12.90;;;22.90;99.90;;;;;;4958494;28;37600;-58
2022/08/17 13:05:16;;;;;;;16.23;10.95;;;22.90;99.90;;;;;;4958771;28;38089;-57
2022/08/17 13:07:45;;;;;;;19.02;11.48;;;22.90;99.90;;;;;;4955445;28;36612;-58
2022/08/17 13:10:22;;;;;;;14.30;11.32;;;22.90;99.90;;;;;;4956596;28;36812;-57
2022/08/17 13:12:51;;;;;;;16.88;12.10;;;22.90;99.90;;;;;;4954277;28;38007;-57
2022/08/17 13:15:28;;;;;;;17.63;12.10;;;22.90;99.90;;;;;;4956260;28;37478;-57
2022/08/17 13:17:58;;;;;;;16.35;13.00;;;22.90;99.90;;;;;;4955224;28;36873;-58
2022/08/17 13:20:26;;;;;;;20.67;12.98;;;22.90;99.90;;;;;;4956986;28;37656;-58
2022/08/17 13:22:56;;;;;;;15.88;12.35;;;23.00;99.90;;;;;;4960842;28;36765;-57
2022/08/17 13:25:24;;;;;;;14.95;13.20;;;23.00;99.90;;;;;;4961780;28;37693;-57
2022/08/17 13:27:54;;;;;;;18.48;14.38;;;23.00;99.90;;;;;;4957653;28;36219;-58